Time;durP1;ratioP1;P1;durP2;ratioP2;P2;SDS_P1;SDS_P2;PMS_P1;PMS_P2;Temp;Humidity;BMP_temperature;BMP_pressure;BME280_temperature;BME280_humidity;BME280_pressure;Samples;Min_cycle;Max_cycle;Signal;HPM_P1;HPM_P2
2023/12/19 00:00:50;;;;;;;36.30;19.38;;;;;;;6.00;100.00;102502.94;5162951;27;20524;-80
2023/12/19 00:03:16;;;;;;;34.65;19.77;;;;;;;6.00;100.00;102505.59;5156077;27;20502;-80
2023/12/19 00:05:44;;;;;;;31.05;19.55;;;;;;;5.97;100.00;102487.84;5156013;27;20039;-80
2023/12/19 00:08:11;;;;;;;37.70;18.85;;;;;;;5.98;100.00;102492.00;5160687;27;20490;-80
2023/12/19 00:10:37;;;;;;;38.03;20.02;;;;;;;5.98;100.00;102476.13;5160610;27;20069;-80
2023/12/19 00:13:04;;;;;;;31.38;19.23;;;;;;;5.98;100.00;102470.84;5168337;27;20039;-80
2023/12/19 00:15:32;;;;;;;34.53;19.08;;;;;;;5.96;100.00;102459.88;5162727;27;20096;-80
2023/12/19 00:17:58;;;;;;;33.83;18.10;;;;;;;5.94;100.00;102460.25;5161117;27;20047;-80
2023/12/19 00:20:25;;;;;;;29.92;18.40;;;;;;;5.95;100.00;102459.13;5143697;27;20085;-79
2023/12/19 00:22:53;;;;;;;33.15;18.45;;;;;;;5.95;100.00;102459.13;5145570;27;20051;-79
2023/12/19 00:25:20;;;;;;;28.48;17.20;;;;;;;5.95;100.00;102464.41;5162634;27;20039;-80
2023/12/19 00:27:46;;;;;;;30.08;18.23;;;;;;;5.96;100.00;102452.69;5182292;27;20043;-80
2023/12/19 00:30:13;;;;;;;29.42;17.75;;;;;;;5.96;100.00;102444.78;5145962;27;20043;-80
2023/12/19 00:32:40;;;;;;;36.20;20.25;;;;;;;5.97;100.00;102442.88;5146339;27;20081;-80
2023/12/19 00:35:08;;;;;;;33.00;18.27;;;;;;;5.96;100.00;102438.72;5187309;27;20035;-80
2023/12/19 00:37:35;;;;;;;29.23;18.15;;;;;;;5.96;100.00;102431.56;5189030;27;20039;-80
2023/12/19 00:40:03;;;;;;;32.75;18.73;;;;;;;5.99;100.00;102430.06;5173524;27;20050;-79
2023/12/19 00:42:30;;;;;;;31.75;19.67;;;;;;;5.99;100.00;102424.78;5171316;27;20043;-80
2023/12/19 00:44:57;;;;;;;30.45;18.40;;;;;;;5.97;100.00;102414.56;5183969;27;20047;-80
2023/12/19 00:47:23;;;;;;;30.52;18.23;;;;;;;5.98;100.00;102415.31;5161036;27;20046;-80
2023/12/19 00:49:50;;;;;;;35.05;18.73;;;;;;;5.97;100.00;102414.56;5180401;27;20096;-79
2023/12/19 00:52:17;;;;;;;36.15;19.33;;;;;;;5.97;100.00;102413.81;5180246;27;20071;-80
2023/12/19 00:54:43;;;;;;;33.70;19.13;;;;;;;5.97;100.00;102427.03;5178877;27;20088;-80
2023/12/19 00:57:10;;;;;;;35.70;20.42;;;;;;;5.97;100.00;102413.81;5180685;27;20091;-79
2023/12/19 00:59:36;;;;;;;38.55;19.95;;;;;;;5.98;100.00;102417.97;5180181;27;20122;-79
2023/12/19 01:02:03;;;;;;;38.20;19.48;;;;;;;5.98;100.00;102410.03;5181421;27;20042;-80
2023/12/19 01:04:30;;;;;;;37.55;19.83;;;;;;;5.96;100.00;102399.06;5181914;27;20043;-80
2023/12/19 01:06:56;;;;;;;36.00;20.08;;;;;;;5.96;100.00;102391.16;5163145;27;20042;-80
2023/12/19 01:09:23;;;;;;;36.38;19.65;;;;;;;5.96;100.00;102380.56;5181959;27;20038;-80
2023/12/19 01:11:50;;;;;;;32.15;19.45;;;;;;;5.96;100.00;102376.03;5167336;27;20043;-80
2023/12/19 01:14:17;;;;;;;41.58;20.55;;;;;;;5.96;100.00;102396.44;5170511;27;20063;-80
2023/12/19 01:16:43;;;;;;;39.95;20.33;;;;;;;5.96;100.00;102388.50;5192197;27;20827;-80
2023/12/19 01:19:10;;;;;;;36.75;20.70;;;;;;;5.96;100.00;102386.63;5165104;27;20053;-80
2023/12/19 01:21:37;;;;;;;38.90;19.73;;;;;;;5.97;100.00;102395.31;5164925;27;20035;-79
2023/12/19 01:24:04;;;;;;;35.13;20.40;;;;;;;5.97;100.00;102393.41;5182843;27;20038;-79
2023/12/19 01:26:32;;;;;;;35.40;19.83;;;;;;;5.96;100.00;102380.56;5181836;27;20569;-79
2023/12/19 01:28:59;;;;;;;33.40;19.23;;;;;;;5.95;100.00;102384.34;5164973;27;20051;-79
2023/12/19 01:31:26;;;;;;;28.05;18.10;;;;;;;5.96;100.00;102375.28;5164593;27;20066;-80
2023/12/19 01:33:54;;;;;;;34.97;19.27;;;;;;;5.96;100.00;102372.63;5160407;27;20057;-79
2023/12/19 01:36:21;;;;;;;30.60;19.00;;;;;;;5.97;100.00;102374.91;5162460;27;20082;-79
2023/12/19 01:38:48;;;;;;;40.58;19.58;;;;;;;6.00;100.00;102382.09;5160118;27;20421;-79
2023/12/19 01:41:15;;;;;;;32.88;18.58;;;;;;;6.01;100.00;102380.19;5146550;27;20035;-80
2023/12/19 01:43:42;;;;;;;33.13;17.45;;;;;;;6.00;100.00;102376.03;5181822;27;20047;-80
2023/12/19 01:46:13;;;;;;;30.98;17.92;;;;;;;5.99;100.00;102374.56;5180716;27;20073;-72
2023/12/19 01:48:40;;;;;;;32.00;17.40;;;;;;;5.97;100.00;102364.34;5177818;27;20042;-72
2023/12/19 01:51:08;;;;;;;33.60;18.25;;;;;;;5.97;100.00;102374.16;5177806;27;20131;-72
2023/12/19 01:53:35;;;;;;;32.25;19.23;;;;;;;5.97;100.00;102368.88;5177285;27;20039;-72
2023/12/19 01:56:02;;;;;;;32.33;18.58;;;;;;;5.97;100.00;102358.28;5177815;27;20497;-72
2023/12/19 01:58:30;;;;;;;36.28;19.55;;;;;;;5.99;100.00;102363.97;5158522;27;20051;-72
2023/12/19 02:00:57;;;;;;;33.20;18.85;;;;;;;5.98;100.00;102354.53;5173907;27;20039;-72
2023/12/19 02:03:24;;;;;;;31.35;18.25;;;;;;;5.98;100.00;102354.53;5176721;27;20088;-72
2023/12/19 02:05:52;;;;;;;29.88;17.25;;;;;;;5.98;100.00;102349.25;5177877;27;20433;-72
2023/12/19 02:08:19;;;;;;;37.60;16.98;;;;;;;5.96;100.00;102352.25;5158085;27;20500;-72
2023/12/19 02:10:46;;;;;;;33.63;18.40;;;;;;;5.96;100.00;102354.88;5177388;27;20073;-72
2023/12/19 02:13:13;;;;;;;33.55;19.77;;;;;;;5.96;100.00;102354.88;5177541;27;20050;-72
2023/12/19 02:15:39;;;;;;;31.92;19.00;;;;;;;5.97;100.00;102350.38;5176837;27;20043;-72
2023/12/19 02:18:20;;;;;;;33.10;18.60;;;;;;;5.97;100.00;102339.78;5177101;27;20046;-72
2023/12/19 02:20:47;;;;;;;31.50;17.73;;;;;;;5.98;100.00;102328.84;5176339;27;20182;-72
2023/12/19 02:23:15;;;;;;;30.20;17.55;;;;;;;5.97;100.00;102342.44;5177725;27;20054;-72
2023/12/19 02:25:41;;;;;;;29.98;18.08;;;;;;;5.98;100.00;102322.81;5175309;27;20096;-72
2023/12/19 02:28:08;;;;;;;26.33;17.77;;;;;;;5.98;100.00;102320.91;5176575;27;20123;-72
2023/12/19 02:30:35;;;;;;;32.17;18.55;;;;;;;5.98;100.00;102301.66;5176718;27;20034;-72
2023/12/19 02:33:03;;;;;;;25.70;16.80;;;;;;;5.99;100.00;102305.81;5177495;27;20039;-73
2023/12/19 02:35:30;;;;;;;29.05;17.05;;;;;;;5.97;100.00;102308.81;5172306;27;20141;-72
2023/12/19 02:37:57;;;;;;;22.20;13.40;;;;;;;5.99;100.00;102303.16;5177082;27;20047;-72
2023/12/19 02:40:24;;;;;;;27.58;16.90;;;;;;;5.99;100.00;102301.28;5176410;27;20132;-72
2023/12/19 02:42:51;;;;;;;29.58;17.40;;;;;;;5.99;100.00;102295.25;5177159;27;20035;-72
2023/12/19 02:45:17;;;;;;;28.73;16.90;;;;;;;6.01;100.00;102287.66;5176893;27;20049;-72
2023/12/19 02:47:44;;;;;;;32.63;18.33;;;;;;;6.01;100.00;102283.16;5176232;27;20491;-72
2023/12/19 02:50:11;;;;;;;29.08;17.02;;;;;;;6.03;100.00;102272.97;5175957;27;20087;-72
2023/12/19 02:52:38;;;;;;;28.60;17.60;;;;;;;6.05;100.00;102279.75;5177525;27;20499;-72
2023/12/19 02:55:05;;;;;;;28.17;17.65;;;;;;;6.05;100.00;102271.84;5157751;27;20047;-72
2023/12/19 02:57:32;;;;;;;32.85;18.52;;;;;;;6.07;100.00;102254.47;5172696;27;20043;-72
2023/12/19 02:59:59;;;;;;;29.88;18.13;;;;;;;6.09;100.00;102264.69;5176853;27;20035;-73
2023/12/19 03:02:25;;;;;;;29.55;17.40;;;;;;;6.09;100.00;102268.06;5175764;27;20049;-73
2023/12/19 03:04:52;;;;;;;27.75;17.42;;;;;;;6.11;100.00;102257.88;5175721;27;20073;-73
2023/12/19 03:07:18;;;;;;;31.48;17.52;;;;;;;6.12;100.00;102251.47;5176984;27;20170;-73
2023/12/19 03:09:45;;;;;;;28.30;17.92;;;;;;;6.14;100.00;102240.53;5176396;27;20481;-73
2023/12/19 03:12:12;;;;;;;32.20;18.73;;;;;;;6.13;100.00;102237.13;5175924;27;20827;-73
2023/12/19 03:14:38;;;;;;;41.92;20.10;;;;;;;6.15;100.00;102242.03;5172224;27;20886;-73
2023/12/19 03:17:05;;;;;;;34.15;18.73;;;;;;;6.16;100.00;102243.56;5172492;27;20517;-73
2023/12/19 03:19:32;;;;;;;30.67;17.88;;;;;;;6.16;100.00;102235.63;5175680;27;20070;-73
2023/12/19 03:21:59;;;;;;;40.13;19.88;;;;;;;6.16;100.00;102217.13;5176021;27;20505;-73
2023/12/19 03:24:28;;;;;;;31.70;19.08;;;;;;;6.18;100.00;102220.16;5175331;27;20095;-73
2023/12/19 03:26:54;;;;;;;39.75;19.10;;;;;;;6.18;100.00;102228.06;5175341;27;20123;-73
2023/12/19 03:29:21;;;;;;;33.83;19.67;;;;;;;6.18;100.00;102220.16;5175251;27;20042;-73
2023/12/19 03:31:48;;;;;;;35.50;19.95;;;;;;;6.19;100.00;102214.47;5176336;27;20067;-74
2023/12/19 03:34:16;;;;;;;33.72;19.08;;;;;;;6.21;100.00;102220.16;5175702;27;20042;-73
2023/12/19 03:36:43;;;;;;;35.25;19.95;;;;;;;6.22;100.00;102202.41;5156987;27;20039;-73
2023/12/19 03:39:09;;;;;;;33.58;19.25;;;;;;;6.22;100.00;102199.75;5176417;27;20789;-73
2023/12/19 03:41:36;;;;;;;32.15;18.90;;;;;;;6.24;100.00;102200.16;5175862;27;20936;-73
2023/12/19 03:44:03;;;;;;;31.85;18.60;;;;;;;6.24;100.00;102194.84;5175066;27;23131;-73
2023/12/19 03:46:29;;;;;;;37.50;18.92;;;;;;;6.26;100.00;102187.31;5175261;27;20053;-73
2023/12/19 03:48:56;;;;;;;35.75;19.83;;;;;;;6.26;100.00;102190.72;5175914;27;20034;-73
2023/12/19 03:51:23;;;;;;;34.63;19.10;;;;;;;6.28;100.00;102177.13;5155661;27;20057;-73
2023/12/19 03:53:49;;;;;;;30.80;19.08;;;;;;;6.29;100.00;102187.31;5176338;27;20050;-73
2023/12/19 03:56:16;;;;;;;40.88;19.05;;;;;;;6.29;100.00;102174.09;5175891;27;20171;-73
2023/12/19 03:58:42;;;;;;;33.47;18.95;;;;;;;6.29;100.00;102168.81;5175450;27;20492;-73
2023/12/19 04:01:10;;;;;;;34.25;18.60;;;;;;;6.31;100.00;102169.19;5175412;27;20045;-73
2023/12/19 04:03:37;;;;;;;34.17;18.80;;;;;;;6.32;100.00;102154.06;5175552;27;20049;-74
2023/12/19 04:06:04;;;;;;;37.72;18.80;;;;;;;6.31;100.00;102149.91;5174740;27;20067;-73
2023/12/19 04:08:31;;;;;;;34.75;19.25;;;;;;;6.34;100.00;102151.81;5175462;27;20080;-73
2023/12/19 04:10:57;;;;;;;30.77;18.30;;;;;;;6.32;100.00;102146.13;5175405;27;20078;-73
2023/12/19 04:13:24;;;;;;;28.48;17.88;;;;;;;6.34;100.00;102138.59;5174517;27;20078;-73
2023/12/19 04:15:51;;;;;;;30.23;17.27;;;;;;;6.34;100.00;102149.94;5175453;27;20043;-73
2023/12/19 04:18:17;;;;;;;28.65;17.70;;;;;;;6.35;100.00;102150.69;5175329;27;20046;-73
2023/12/19 04:20:44;;;;;;;31.30;17.10;;;;;;;6.35;100.00;102151.44;5175987;27;20040;-73
2023/12/19 04:23:12;;;;;;;28.40;17.25;;;;;;;6.37;100.00;102148.41;5175381;27;20035;-73
2023/12/19 04:25:38;;;;;;;27.25;16.27;;;;;;;6.37;100.00;102135.19;5175138;27;20130;-73
2023/12/19 04:28:05;;;;;;;23.55;14.23;;;;;;;6.38;100.00;102125.38;5175164;27;20043;-73
2023/12/19 04:30:32;;;;;;;24.63;14.65;;;;;;;6.39;100.00;102117.06;5174765;27;20045;-73
2023/12/19 04:32:58;;;;;;;19.90;13.55;;;;;;;6.38;100.00;102115.53;5174659;27;20081;-73
2023/12/19 04:35:25;;;;;;;21.95;15.55;;;;;;;6.40;100.00;102113.25;5174898;27;20046;-73
2023/12/19 04:37:52;;;;;;;21.35;13.60;;;;;;;6.41;100.00;102112.13;5175487;27;20053;-73
2023/12/19 04:40:18;;;;;;;22.33;14.00;;;;;;;6.42;100.00;102107.59;5174723;27;20053;-73
2023/12/19 04:42:45;;;;;;;24.45;15.15;;;;;;;6.43;100.00;102101.94;5171233;27;20050;-73
2023/12/19 04:45:12;;;;;;;24.38;15.30;;;;;;;6.44;100.00;102105.31;5156139;27;20548;-73
2023/12/19 04:47:39;;;;;;;26.92;16.92;;;;;;;6.46;100.00;102111.00;5174946;27;20051;-73
2023/12/19 04:50:08;;;;;;;25.08;15.73;;;;;;;6.47;100.00;102110.63;5177994;27;20046;-73
2023/12/19 04:52:35;;;;;;;28.42;16.80;;;;;;;6.49;100.00;102107.59;5178180;27;20038;-73
2023/12/19 04:55:01;;;;;;;28.73;17.08;;;;;;;6.51;100.00;102111.38;5178707;27;20054;-73
2023/12/19 04:57:28;;;;;;;27.38;16.02;;;;;;;6.50;100.00;102099.28;5178059;27;20043;-73
2023/12/19 04:59:56;;;;;;;30.27;15.80;;;;;;;6.51;100.00;102098.16;5178354;27;20042;-73
2023/12/19 05:02:23;;;;;;;24.08;16.15;;;;;;;6.53;100.00;102093.25;5178845;27;20043;-73
2023/12/19 05:04:49;;;;;;;26.98;15.82;;;;;;;6.54;100.00;102088.72;5178797;27;20107;-73
2023/12/19 05:07:16;;;;;;;25.13;16.60;;;;;;;6.55;100.00;102090.22;5177763;27;20121;-73
2023/12/19 05:09:43;;;;;;;21.90;15.27;;;;;;;6.55;100.00;102090.22;5177798;27;20130;-73
2023/12/19 05:12:09;;;;;;;20.60;14.93;;;;;;;6.56;100.00;102078.50;5178638;27;20051;-72
2023/12/19 05:14:37;;;;;;;22.63;13.70;;;;;;;6.57;100.00;102080.00;5177633;27;20082;-72
2023/12/19 05:17:03;;;;;;;19.15;13.13;;;;;;;6.56;100.00;102078.50;5177780;27;20054;-72
2023/12/19 05:19:30;;;;;;;17.98;11.38;;;;;;;6.56;100.00;102075.84;5177803;27;20630;-73
2023/12/19 05:21:57;;;;;;;17.20;11.43;;;;;;;6.57;100.00;102072.06;5177772;27;20873;-73
2023/12/19 05:24:24;;;;;;;16.17;10.38;;;;;;;6.57;100.00;102082.66;5177504;27;20748;-73
2023/12/19 05:26:50;;;;;;;11.88;9.80;;;;;;;6.58;100.00;102078.88;5177814;27;20528;-73
2023/12/19 05:29:17;;;;;;;12.82;10.43;;;;;;;6.58;100.00;102079.63;5177967;27;20043;-73
2023/12/19 05:31:43;;;;;;;10.80;9.30;;;;;;;6.57;100.00;102077.38;5177873;27;20039;-73
2023/12/19 05:34:10;;;;;;;10.77;9.00;;;;;;;6.58;100.00;102077.00;5158386;27;20521;-73
2023/12/19 05:36:37;;;;;;;10.82;8.80;;;;;;;6.59;100.00;102069.81;5178085;27;20038;-73
2023/12/19 05:39:07;;;;;;;11.73;8.95;;;;;;;6.59;100.00;102067.16;5178576;27;20039;-73
2023/12/19 05:41:34;;;;;;;11.48;9.50;;;;;;;6.59;100.00;102065.28;5177777;27;20129;-73
2023/12/19 05:44:00;;;;;;;11.27;9.10;;;;;;;6.61;100.00;102054.31;5177480;27;20525;-73
2023/12/19 05:46:28;;;;;;;10.68;9.07;;;;;;;6.62;100.00;102053.19;5178202;27;20129;-73
2023/12/19 05:48:55;;;;;;;11.13;9.23;;;;;;;6.63;100.00;102059.97;5178114;27;20046;-73
2023/12/19 05:51:22;;;;;;;12.07;10.05;;;;;;;6.65;100.00;102068.28;5177223;27;20072;-73
2023/12/19 05:53:49;;;;;;;11.15;9.27;;;;;;;6.67;100.00;102066.03;5158595;27;20043;-73
2023/12/19 05:56:15;;;;;;;11.70;9.32;;;;;;;6.68;100.00;102057.72;5177715;27;20041;-73
2023/12/19 05:58:44;;;;;;;9.85;7.88;;;;;;;6.71;100.00;102050.16;5177015;27;20509;-73
2023/12/19 06:01:11;;;;;;;10.88;8.77;;;;;;;6.71;100.00;102040.31;5177942;27;20550;-73
2023/12/19 06:03:38;;;;;;;11.98;9.25;;;;;;;6.73;100.00;102051.28;5177397;27;20497;-74
2023/12/19 06:06:04;;;;;;;13.60;9.80;;;;;;;6.76;100.00;102047.13;5178904;27;20047;-73
2023/12/19 06:08:31;;;;;;;13.85;9.90;;;;;;;6.76;100.00;102045.22;5181317;27;20058;-73
2023/12/19 06:10:58;;;;;;;11.20;9.52;;;;;;;6.79;100.00;102033.13;5162601;27;20042;-73
2023/12/19 06:13:29;;;;;;;12.55;9.80;;;;;;;6.81;100.00;102034.22;5174783;27;20057;-73
2023/12/19 06:15:56;;;;;;;14.27;9.80;;;;;;;6.81;100.00;102031.56;5177247;27;20520;-73
2023/12/19 06:18:22;;;;;;;12.93;10.35;;;;;;;6.83;100.00;102025.91;5158188;27;20042;-73
2023/12/19 06:20:50;;;;;;;12.13;9.60;;;;;;;6.84;100.00;102016.81;5177729;27;20114;-73
2023/12/19 06:23:17;;;;;;;12.35;10.57;;;;;;;6.85;100.00;102013.03;5177358;27;20508;-73
2023/12/19 06:25:44;;;;;;;14.70;10.40;;;;;;;6.86;100.00;102003.97;5176999;27;20500;-73
2023/12/19 06:28:10;;;;;;;14.02;10.35;;;;;;;6.87;100.00;102005.47;5176829;27;20057;-73
2023/12/19 06:30:37;;;;;;;14.82;10.18;;;;;;;6.88;100.00;102013.03;5176759;27;20523;-74
2023/12/19 06:33:06;;;;;;;11.38;10.18;;;;;;;6.89;100.00;102006.59;5177286;27;20086;-74
2023/12/19 06:35:33;;;;;;;11.02;9.55;;;;;;;6.91;100.00;102020.22;5176699;27;20049;-73
2023/12/19 06:37:59;;;;;;;10.50;9.40;;;;;;;6.92;100.00;102011.13;5177625;27;20047;-73
2023/12/19 06:40:26;;;;;;;12.27;10.38;;;;;;;6.92;100.00;102011.13;5176899;27;20420;-73
2023/12/19 06:42:53;;;;;;;14.73;11.10;;;;;;;6.92;100.00;101997.13;5176276;27;20046;-73
2023/12/19 06:45:20;;;;;;;12.63;10.18;;;;;;;6.93;100.00;101993.34;5176678;27;20127;-74
2023/12/19 06:47:47;;;;;;;13.90;10.93;;;;;;;6.93;100.00;101993.34;5177494;27;20143;-74
2023/12/19 06:50:14;;;;;;;16.25;11.80;;;;;;;6.93;100.00;101994.13;5176461;27;20034;-74
2023/12/19 06:52:40;;;;;;;15.68;11.63;;;;;;;6.92;100.00;101992.59;5176015;27;20035;-73
2023/12/19 06:55:14;;;;;;;13.07;10.30;;;;;;;6.94;100.00;101986.94;5177127;27;20100;-73
2023/12/19 06:57:40;;;;;;;15.48;10.98;;;;;;;6.94;100.00;101990.31;5176007;27;20546;-73
2023/12/19 07:00:07;;;;;;;13.65;11.07;;;;;;;6.94;100.00;101990.31;5177190;27;20566;-74
2023/12/19 07:02:36;;;;;;;12.02;10.57;;;;;;;6.95;100.00;101993.72;5176399;27;20042;-74
2023/12/19 07:05:04;;;;;;;19.38;12.13;;;;;;;6.95;100.00;101991.84;5173046;27;20043;-74
2023/12/19 07:07:31;;;;;;;17.58;12.35;;;;;;;6.96;100.00;101977.47;5175538;27;20049;-76
2023/12/19 07:09:58;;;;;;;13.52;11.93;;;;;;;6.99;100.00;101983.88;5176500;27;20053;-75
2023/12/19 07:12:25;;;;;;;18.73;12.90;;;;;;;6.97;100.00;101968.38;5174979;27;20042;-75
2023/12/19 07:14:51;;;;;;;16.83;12.27;;;;;;;6.99;100.00;101973.28;5176572;27;20127;-75
2023/12/19 07:17:18;;;;;;;20.17;13.65;;;;;;;6.99;100.00;101976.69;5176088;27;20394;-75
2023/12/19 07:19:45;;;;;;;18.92;13.10;;;;;;;7.00;100.00;101969.50;5176977;27;20066;-75
2023/12/19 07:22:11;;;;;;;18.55;12.40;;;;;;;7.01;100.00;101979.72;5157271;27;20146;-75
2023/12/19 07:24:38;;;;;;;17.83;13.90;;;;;;;7.00;100.00;101978.22;5176006;27;20043;-76
2023/12/19 07:27:05;;;;;;;19.42;13.52;;;;;;;7.01;100.00;101979.72;5156654;27;20584;-75
2023/12/19 07:29:31;;;;;;;18.42;13.32;;;;;;;7.02;100.00;101975.94;5175924;27;20164;-75
2023/12/19 07:31:58;;;;;;;17.17;14.05;;;;;;;7.05;100.00;101971.00;5176715;27;20138;-75
2023/12/19 07:34:24;;;;;;;21.48;14.40;;;;;;;7.07;100.00;101960.78;5156837;27;20141;-76
2023/12/19 07:36:51;;;;;;;23.17;15.27;;;;;;;7.08;100.00;101975.53;5175693;27;20497;-78
2023/12/19 07:39:18;;;;;;;22.23;14.73;;;;;;;7.09;100.00;101969.84;5156170;27;20051;-73
2023/12/19 07:41:45;;;;;;;22.10;14.80;;;;;;;7.10;100.00;101971.38;5175022;27;20049;-74
2023/12/19 07:44:14;;;;;;;20.95;14.38;;;;;;;7.11;100.00;101964.94;5175909;27;20134;-74
2023/12/19 07:46:41;;;;;;;21.08;15.13;;;;;;;7.11;100.00;101964.94;5153832;27;20045;-74
2023/12/19 07:49:10;;;;;;;18.05;13.02;;;;;;;7.13;100.00;101970.59;5175261;27;20560;-74
2023/12/19 07:51:37;;;;;;;21.10;13.30;;;;;;;7.13;100.00;101961.91;5175761;27;20122;-74
2023/12/19 07:54:04;;;;;;;17.20;12.63;;;;;;;7.15;100.00;101978.16;5175287;27;20038;-74
2023/12/19 07:56:30;;;;;;;21.05;14.18;;;;;;;7.14;100.00;101956.22;5175552;27;20507;-75
2023/12/19 07:58:58;;;;;;;17.85;13.80;;;;;;;7.14;100.00;101958.13;5176325;27;20043;-75
2023/12/19 08:01:25;;;;;;;21.67;14.30;;;;;;;7.14;100.00;101960.75;5174797;27;20040;-74
2023/12/19 08:03:52;;;;;;;23.35;15.95;;;;;;;7.13;100.00;101965.31;5176010;27;20049;-75
2023/12/19 08:06:19;;;;;;;19.92;14.25;;;;;;;7.14;100.00;101950.16;5175280;27;20049;-76
2023/12/19 08:08:49;;;;;;;23.25;15.35;;;;;;;7.14;100.00;101952.81;5175133;27;20042;-76
2023/12/19 08:11:16;;;;;;;24.75;15.82;;;;;;;7.13;100.00;101949.41;5171568;27;20096;-76
2023/12/19 08:13:43;;;;;;;24.83;15.18;;;;;;;7.14;100.00;101958.88;5174209;27;20406;-76
2023/12/19 08:16:10;;;;;;;22.92;15.88;;;;;;;7.14;100.00;101948.28;5175059;27;20043;-76
2023/12/19 08:18:37;;;;;;;24.55;16.10;;;;;;;7.14;100.00;101950.91;5175354;27;20042;-75
2023/12/19 08:21:04;;;;;;;26.90;17.30;;;;;;;7.15;100.00;101941.09;5175575;27;20087;-75
2023/12/19 08:23:30;;;;;;;27.67;16.52;;;;;;;7.15;100.00;101935.78;5155894;27;20043;-75
2023/12/19 08:25:57;;;;;;;22.85;15.13;;;;;;;7.16;100.00;101943.34;5179020;27;20034;-75
2023/12/19 08:28:23;;;;;;;28.92;16.67;;;;;;;7.17;100.00;101930.84;5179091;27;20081;-75
2023/12/19 08:30:50;;;;;;;30.65;16.52;;;;;;;7.17;100.00;101918.38;5179798;27;20115;-75
2023/12/19 08:33:17;;;;;;;24.70;16.13;;;;;;;7.16;100.00;101919.50;5179210;27;20039;-75
2023/12/19 08:35:45;;;;;;;25.15;16.17;;;;;;;7.18;100.00;101925.19;5175227;27;20129;-75
2023/12/19 08:38:12;;;;;;;23.95;16.15;;;;;;;7.19;100.00;101936.53;5160384;27;20039;-75
2023/12/19 08:40:38;;;;;;;21.75;14.50;;;;;;;7.20;100.00;101927.41;5178960;27;20546;-75
2023/12/19 08:43:05;;;;;;;25.58;16.38;;;;;;;7.19;100.00;101926.69;5178712;27;20047;-75
2023/12/19 08:45:31;;;;;;;24.92;15.95;;;;;;;7.21;100.00;101923.63;5179338;27;20129;-75
2023/12/19 08:47:58;;;;;;;24.05;14.77;;;;;;;7.21;100.00;101923.63;5179133;27;20072;-75
2023/12/19 08:50:25;;;;;;;23.63;14.50;;;;;;;7.22;100.00;101925.13;5178544;27;20482;-75
2023/12/19 08:52:53;;;;;;;24.17;15.80;;;;;;;7.22;100.00;101911.88;5176505;27;20406;-73
2023/12/19 08:55:20;;;;;;;22.90;15.77;;;;;;;7.22;100.00;101920.59;5178455;27;20041;-73
2023/12/19 08:57:47;;;;;;;23.17;16.15;;;;;;;7.23;100.00;101916.81;5177955;27;20039;-74
2023/12/19 09:00:19;;;;;;;25.58;15.77;;;;;;;7.23;100.00;101892.97;5178962;27;20042;-74
2023/12/19 09:02:47;;;;;;;26.80;15.25;;;;;;;7.24;100.00;101906.97;5177311;27;20045;-73
2023/12/19 09:05:19;;;;;;;23.65;15.02;;;;;;;7.25;100.00;101909.22;5178055;27;20512;-74
2023/12/19 09:07:46;;;;;;;19.75;14.77;;;;;;;7.25;100.00;101903.94;5177389;27;20497;-74
2023/12/19 09:10:14;;;;;;;24.60;14.80;;;;;;;7.27;100.00;101895.59;5177380;27;20053;-74
2023/12/19 09:12:42;;;;;;;24.88;14.82;;;;;;;7.27;100.00;101906.94;5176900;27;20518;-74
2023/12/19 09:15:10;;;;;;;19.13;13.60;;;;;;;7.26;100.00;101905.44;5177540;27;20099;-74
2023/12/19 09:17:37;;;;;;;18.67;13.77;;;;;;;7.29;100.00;101909.19;5177232;27;20532;-74
2023/12/19 09:20:05;;;;;;;18.10;13.43;;;;;;;7.27;100.00;101900.88;5177748;27;20038;-74
2023/12/19 09:22:32;;;;;;;20.98;13.45;;;;;;;7.27;100.00;101903.53;5177267;27;20046;-74
2023/12/19 09:24:59;;;;;;;19.13;13.27;;;;;;;7.27;100.00;101895.59;5177659;27;20043;-74
2023/12/19 09:27:26;;;;;;;17.67;13.75;;;;;;;7.29;100.00;101903.91;5158713;27;20045;-74
2023/12/19 09:29:52;;;;;;;15.30;11.48;;;;;;;7.28;100.00;101897.09;5177705;27;20043;-74
2023/12/19 09:32:19;;;;;;;16.88;12.55;;;;;;;7.29;100.00;101890.66;5177693;27;20135;-74
2023/12/19 09:34:46;;;;;;;18.42;12.82;;;;;;;7.30;100.00;101892.94;5176426;27;20526;-74
2023/12/19 09:37:13;;;;;;;14.25;11.93;;;;;;;7.30;100.00;101886.88;5178132;27;20053;-73
2023/12/19 09:39:40;;;;;;;19.00;12.35;;;;;;;7.32;100.00;101897.84;5177183;27;20050;-73
2023/12/19 09:42:07;;;;;;;16.15;12.27;;;;;;;7.32;100.00;101890.63;5177778;27;20046;-73
2023/12/19 09:44:33;;;;;;;22.17;12.77;;;;;;;7.32;100.00;101872.09;5176922;27;20069;-73
2023/12/19 09:47:02;;;;;;;20.73;13.00;;;;;;;7.33;100.00;101878.16;5178257;27;20885;-72
2023/12/19 09:49:32;;;;;;;18.20;12.73;;;;;;;7.36;100.00;101880.03;5176782;27;20052;-75
2023/12/19 09:51:59;;;;;;;18.20;11.93;;;;;;;7.35;100.00;101868.69;5173997;27;20039;-75
2023/12/19 09:54:26;;;;;;;14.75;12.35;;;;;;;7.36;100.00;101872.06;5174699;27;20043;-75
2023/12/19 09:56:53;;;;;;;14.65;11.80;;;;;;;7.36;100.00;101864.88;5177677;27;20121;-75
2023/12/19 09:59:21;;;;;;;15.55;12.18;;;;;;;7.36;100.00;101858.84;5177300;27;20049;-74
2023/12/19 10:01:48;;;;;;;16.85;12.52;;;;;;;7.38;100.00;101874.34;5177660;27;20118;-75
2023/12/19 10:04:16;;;;;;;14.20;11.82;;;;;;;7.39;100.00;101859.94;5176440;27;20496;-75
2023/12/19 10:06:57;;;;;;;14.43;12.30;;;;;;;7.40;100.00;101853.50;5177567;27;20047;-75
2023/12/19 10:09:24;;;;;;;13.77;10.52;;;;;;;7.39;100.00;101852.00;5176145;27;20558;-75
2023/12/19 10:12:03;;;;;;;14.25;11.07;;;;;;;7.39;100.00;101855.41;5177166;27;20043;-75
2023/12/19 10:14:29;;;;;;;13.70;10.38;;;;;;;7.39;100.00;101852.75;5174781;27;20729;-75
2023/12/19 10:16:56;;;;;;;12.40;10.95;;;;;;;7.39;100.00;101839.50;5177309;27;20047;-75
2023/12/19 10:19:28;;;;;;;14.95;11.65;;;;;;;7.39;100.00;101850.09;5176113;27;20043;-75
2023/12/19 10:22:16;;;;;;;13.57;11.25;;;;;;;7.43;100.00;101852.72;5176918;27;20054;-75
2023/12/19 10:24:43;;;;;;;13.43;11.18;;;;;;;7.43;100.00;101844.78;5174682;27;20055;-75
2023/12/19 10:27:10;;;;;;;17.10;10.80;;;;;;;7.43;100.00;101837.59;5158935;27;20463;-75
2023/12/19 10:29:38;;;;;;;14.60;10.30;;;;;;;7.43;100.00;101829.63;5176270;27;20046;-75
2023/12/19 10:32:19;;;;;;;12.13;10.02;;;;;;;7.44;100.00;101825.09;5177294;27;20655;-76
2023/12/19 10:34:47;;;;;;;14.23;11.03;;;;;;;7.45;100.00;101811.47;5156992;27;20550;-76
2023/12/19 10:37:20;;;;;;;12.40;10.05;;;;;;;7.45;100.00;101810.72;5176312;27;20504;-76
2023/12/19 10:39:48;;;;;;;11.60;9.70;;;;;;;7.46;100.00;101809.56;5175707;27;20171;-76
2023/12/19 10:42:18;;;;;;;10.88;9.77;;;;;;;7.45;100.00;101798.22;5175977;27;20050;-76
2023/12/19 10:44:48;;;;;;;13.35;10.00;;;;;;;7.46;100.00;101794.41;5172927;27;20092;-76
2023/12/19 10:47:14;;;;;;;12.88;9.73;;;;;;;7.48;100.00;101784.19;5175555;27;20039;-76
2023/12/19 10:49:41;;;;;;;17.08;10.52;;;;;;;7.47;100.00;101793.28;5155833;27;20120;-76
2023/12/19 10:52:09;;;;;;;12.77;9.88;;;;;;;7.48;100.00;101783.44;5177414;27;20043;-76
2023/12/19 10:54:37;;;;;;;12.80;9.80;;;;;;;7.47;100.00;101773.97;5178024;27;20043;-76
2023/12/19 10:57:16;;;;;;;13.60;9.52;;;;;;;7.45;100.00;101771.72;5173122;27;20046;-75
2023/12/19 11:00:00;;;;;;;13.15;9.75;;;;;;;7.45;100.00;101774.38;5172593;27;20050;-76
2023/12/19 11:02:48;;;;;;;13.90;9.50;;;;;;;7.45;100.00;101766.41;5181280;27;20529;-81
2023/12/19 11:05:21;;;;;;;12.07;10.07;;;;;;;7.48;100.00;101772.84;5180873;27;20128;-79
2023/12/19 11:07:50;;;;;;;13.70;10.25;;;;;;;7.49;100.00;101761.84;5181190;27;20022;-78
2023/12/19 11:10:24;;;;;;;13.67;10.77;;;;;;;7.48;100.00;101760.34;5177716;27;20054;-79